sensor_id;sensor_type;location;lat;lon;timestamp;pressure;altitude;pressure_sealevel;temperature;humidity
13732;BME280;6937;56.096;12.664;2023-01-08T00:00:55;99461.31;;;8.36;100.00
13732;BME280;6937;56.096;12.664;2023-01-08T00:03:20;99452.50;;;8.35;100.00
13732;BME280;6937;56.096;12.664;2023-01-08T00:05:46;99413.69;;;8.21;100.00
13732;BME280;6937;56.096;12.664;2023-01-08T00:08:11;99407.50;;;8.32;100.00
13732;BME280;6937;56.096;12.664;2023-01-08T00:10:37;99389.31;;;8.37;100.00
13732;BME280;6937;56.096;12.664;2023-01-08T00:13:04;99360.28;;;8.34;100.00
13732;BME280;6937;56.096;12.664;2023-01-08T00:15:30;99347.50;;;8.28;100.00
13732;BME280;6937;56.096;12.664;2023-01-08T00:17:56;99311.41;;;8.14;100.00
13732;BME280;6937;56.096;12.664;2023-01-08T00:20:22;99274.22;;;8.03;100.00
13732;BME280;6937;56.096;12.664;2023-01-08T00:22:48;99286.03;;;8.10;100.00
13732;BME280;6937;56.096;12.664;2023-01-08T00:25:14;99249.59;;;8.01;100.00
13732;BME280;6937;56.096;12.664;2023-01-08T00:27:40;99246.66;;;8.04;100.00
13732;BME280;6937;56.096;12.664;2023-01-08T00:30:06;99212.72;;;7.97;100.00
13732;BME280;6937;56.096;12.664;2023-01-08T00:32:31;99192.97;;;7.90;100.00
13732;BME280;6937;56.096;12.664;2023-01-08T00:34:56;99218.63;;;8.00;100.00
13732;BME280;6937;56.096;12.664;2023-01-08T00:37:22;99213.19;;;8.02;100.00
13732;BME280;6937;56.096;12.664;2023-01-08T00:39:47;99187.56;;;8.01;100.00
13732;BME280;6937;56.096;12.664;2023-01-08T00:42:13;99157.25;;;7.92;100.00
13732;BME280;6937;56.096;12.664;2023-01-08T00:44:38;99110.31;;;7.72;100.00
13732;BME280;6937;56.096;12.664;2023-01-08T00:47:03;99115.94;;;7.88;100.00
13732;BME280;6937;56.096;12.664;2023-01-08T00:49:29;99101.97;;;7.86;100.00
13732;BME280;6937;56.096;12.664;2023-01-08T00:51:54;99058.63;;;7.65;100.00
13732;BME280;6937;56.096;12.664;2023-01-08T00:54:20;99066.94;;;7.81;100.00
13732;BME280;6937;56.096;12.664;2023-01-08T00:56:45;99058.16;;;7.90;100.00
13732;BME280;6937;56.096;12.664;2023-01-08T00:59:10;99045.97;;;7.88;100.00
13732;BME280;6937;56.096;12.664;2023-01-08T01:01:36;99001.31;;;7.82;100.00
13732;BME280;6937;56.096;12.664;2023-01-08T01:04:01;98995.44;;;7.88;100.00
13732;BME280;6937;56.096;12.664;2023-01-08T01:06:27;98969.00;;;7.86;100.00
13732;BME280;6937;56.096;12.664;2023-01-08T01:08:52;98956.09;;;7.82;100.00
13732;BME280;6937;56.096;12.664;2023-01-08T01:11:24;98949.81;;;7.92;100.00
13732;BME280;6937;56.096;12.664;2023-01-08T01:13:50;98934.13;;;7.89;100.00
13732;BME280;6937;56.096;12.664;2023-01-08T01:16:16;98992.47;;;7.81;100.00
13732;BME280;6937;56.096;12.664;2023-01-08T01:18:42;99000.34;;;7.83;100.00
13732;BME280;6937;56.096;12.664;2023-01-08T01:21:29;98979.59;;;7.76;100.00
13732;BME280;6937;56.096;12.664;2023-01-08T01:23:56;98976.38;;;7.73;100.00
13732;BME280;6937;56.096;12.664;2023-01-08T01:26:22;98941.19;;;7.50;100.00
13732;BME280;6937;56.096;12.664;2023-01-08T01:28:52;98905.91;;;7.39;100.00
13732;BME280;6937;56.096;12.664;2023-01-08T01:31:18;98946.41;;;7.61;100.00
13732;BME280;6937;56.096;12.664;2023-01-08T01:33:44;98944.84;;;7.59;100.00
13732;BME280;6937;56.096;12.664;2023-01-08T01:36:14;98938.69;;;7.58;100.00
13732;BME280;6937;56.096;12.664;2023-01-08T01:38:44;98893.31;;;7.31;100.00
13732;BME280;6937;56.096;12.664;2023-01-08T01:41:31;98930.44;;;7.52;100.00
13732;BME280;6937;56.096;12.664;2023-01-08T01:43:59;98931.97;;;7.54;100.00
13732;BME280;6937;56.096;12.664;2023-01-08T01:46:35;98924.16;;;7.53;100.00
13732;BME280;6937;56.096;12.664;2023-01-08T01:49:14;98898.25;;;7.55;100.00
13732;BME280;6937;56.096;12.664;2023-01-08T01:51:48;98999.41;;;7.53;100.00
13732;BME280;6937;56.096;12.664;2023-01-08T01:54:16;98980.94;;;7.52;100.00
13732;BME280;6937;56.096;12.664;2023-01-08T01:56:43;98964.03;;;7.53;100.00
13732;BME280;6937;56.096;12.664;2023-01-08T01:59:10;98947.63;;;7.48;100.00
13732;BME280;6937;56.096;12.664;2023-01-08T02:01:36;98938.84;;;7.57;100.00
13732;BME280;6937;56.096;12.664;2023-01-08T02:04:02;98900.06;;;7.45;100.00
13732;BME280;6937;56.096;12.664;2023-01-08T02:11:48;98883.44;;;7.62;100.00
13732;BME280;6937;56.096;12.664;2023-01-08T02:14:41;98858.41;;;7.55;100.00
13732;BME280;6937;56.096;12.664;2023-01-08T02:17:11;98833.34;;;7.48;100.00
13732;BME280;6937;56.096;12.664;2023-01-08T02:19:52;98844.13;;;7.56;100.00
13732;BME280;6937;56.096;12.664;2023-01-08T02:25:10;98831.84;;;7.64;100.00
13732;BME280;6937;56.096;12.664;2023-01-08T02:27:42;98762.03;;;7.34;100.00
13732;BME280;6937;56.096;12.664;2023-01-08T02:30:08;98790.41;;;7.62;100.00
13732;BME280;6937;56.096;12.664;2023-01-08T02:32:39;98774.47;;;7.62;100.00
13732;BME280;6937;56.096;12.664;2023-01-08T02:35:06;98766.63;;;7.60;100.00
13732;BME280;6937;56.096;12.664;2023-01-08T02:37:32;98746.63;;;7.56;100.00
13732;BME280;6937;56.096;12.664;2023-01-08T02:45:44;98731.09;;;7.61;100.00
13732;BME280;6937;56.096;12.664;2023-01-08T02:50:42;98713.47;;;7.60;100.00
13732;BME280;6937;56.096;12.664;2023-01-08T02:53:18;98704.50;;;7.61;100.00
13732;BME280;6937;56.096;12.664;2023-01-08T02:55:51;98709.69;;;7.63;100.00
13732;BME280;6937;56.096;12.664;2023-01-08T02:58:17;98683.25;;;7.61;100.00
13732;BME280;6937;56.096;12.664;2023-01-08T03:00:44;98671.09;;;7.59;100.00
13732;BME280;6937;56.096;12.664;2023-01-08T03:03:14;98687.44;;;7.64;100.00
13732;BME280;6937;56.096;12.664;2023-01-08T03:05:44;98701.59;;;7.64;100.00
13732;BME280;6937;56.096;12.664;2023-01-08T03:08:10;98699.75;;;7.55;100.00
13732;BME280;6937;56.096;12.664;2023-01-08T03:10:37;98658.97;;;7.37;100.00
13732;BME280;6937;56.096;12.664;2023-01-08T03:13:28;98651.97;;;7.36;100.00
13732;BME280;6937;56.096;12.664;2023-01-08T03:15:58;98708.84;;;7.62;100.00
13732;BME280;6937;56.096;12.664;2023-01-08T03:18:32;98702.56;;;7.63;100.00
13732;BME280;6937;56.096;12.664;2023-01-08T03:21:01;98686.72;;;7.62;100.00
13732;BME280;6937;56.096;12.664;2023-01-08T03:23:32;98663.41;;;7.56;100.00
13732;BME280;6937;56.096;12.664;2023-01-08T03:26:00;98678.47;;;7.65;100.00
13732;BME280;6937;56.096;12.664;2023-01-08T03:28:32;98651.66;;;7.49;100.00
13732;BME280;6937;56.096;12.664;2023-01-08T03:30:59;98659.91;;;7.55;100.00
13732;BME280;6937;56.096;12.664;2023-01-08T03:33:28;98669.81;;;7.63;100.00
13732;BME280;6937;56.096;12.664;2023-01-08T03:35:55;98670.50;;;7.65;100.00
13732;BME280;6937;56.096;12.664;2023-01-08T03:38:26;98674.00;;;7.65;100.00
13732;BME280;6937;56.096;12.664;2023-01-08T03:40:58;98678.75;;;7.62;100.00
13732;BME280;6937;56.096;12.664;2023-01-08T03:43:25;98649.53;;;7.62;100.00
13732;BME280;6937;56.096;12.664;2023-01-08T03:45:57;98636.28;;;7.52;100.00
13732;BME280;6937;56.096;12.664;2023-01-08T03:48:24;98663.94;;;7.59;100.00
13732;BME280;6937;56.096;12.664;2023-01-08T03:50:51;98697.66;;;7.59;100.00
13732;BME280;6937;56.096;12.664;2023-01-08T03:53:16;98674.00;;;7.65;100.00
13732;BME280;6937;56.096;12.664;2023-01-08T03:55:42;98648.34;;;7.37;100.00
13732;BME280;6937;56.096;12.664;2023-01-08T03:58:07;98688.44;;;7.53;100.00
13732;BME280;6937;56.096;12.664;2023-01-08T04:00:32;98687.06;;;7.49;100.00
13732;BME280;6937;56.096;12.664;2023-01-08T04:02:58;98688.03;;;7.48;100.00
13732;BME280;6937;56.096;12.664;2023-01-08T04:05:23;98706.75;;;7.47;100.00
13732;BME280;6937;56.096;12.664;2023-01-08T04:07:49;98651.00;;;7.18;100.00
13732;BME280;6937;56.096;12.664;2023-01-08T04:10:14;98702.72;;;7.52;100.00
13732;BME280;6937;56.096;12.664;2023-01-08T04:12:42;98699.22;;;7.52;100.00
13732;BME280;6937;56.096;12.664;2023-01-08T04:15:07;98679.94;;;7.50;100.00
13732;BME280;6937;56.096;12.664;2023-01-08T04:17:33;98684.09;;;7.43;100.00
13732;BME280;6937;56.096;12.664;2023-01-08T04:19:58;98683.94;;;7.54;100.00
13732;BME280;6937;56.096;12.664;2023-01-08T04:22:24;98627.66;;;7.21;100.00
13732;BME280;6937;56.096;12.664;2023-01-08T04:24:49;98668.72;;;7.46;100.00
13732;BME280;6937;56.096;12.664;2023-01-08T04:27:14;98673.78;;;7.49;100.00
13732;BME280;6937;56.096;12.664;2023-01-08T04:29:40;98681.75;;;7.49;100.00
13732;BME280;6937;56.096;12.664;2023-01-08T04:32:05;98627.06;;;7.27;100.00
13732;BME280;6937;56.096;12.664;2023-01-08T04:34:30;98664.41;;;7.45;100.00
13732;BME280;6937;56.096;12.664;2023-01-08T04:36:56;98640.78;;;7.42;100.00
13732;BME280;6937;56.096;12.664;2023-01-08T04:39:21;98653.22;;;7.42;100.00
13732;BME280;6937;56.096;12.664;2023-01-08T04:41:46;98634.22;;;7.37;100.00
13732;BME280;6937;56.096;12.664;2023-01-08T04:44:12;98614.34;;;7.31;100.00
13732;BME280;6937;56.096;12.664;2023-01-08T04:46:37;98639.78;;;7.43;100.00
13732;BME280;6937;56.096;12.664;2023-01-08T04:49:03;98590.50;;;7.12;100.00
13732;BME280;6937;56.096;12.664;2023-01-08T04:51:28;98636.31;;;7.33;100.00
13732;BME280;6937;56.096;12.664;2023-01-08T04:53:53;98629.31;;;7.32;100.00
13732;BME280;6937;56.096;12.664;2023-01-08T04:56:19;98639.81;;;7.34;100.00
13732;BME280;6937;56.096;12.664;2023-01-08T04:58:44;98612.97;;;7.27;100.00
13732;BME280;6937;56.096;12.664;2023-01-08T05:01:15;98634.50;;;7.34;100.00
13732;BME280;6937;56.096;12.664;2023-01-08T05:03:42;98615.78;;;7.25;100.00
13732;BME280;6937;56.096;12.664;2023-01-08T05:06:07;98627.78;;;7.29;100.00
13732;BME280;6937;56.096;12.664;2023-01-08T05:08:33;98621.94;;;7.26;100.00
13732;BME280;6937;56.096;12.664;2023-01-08T05:10:59;98627.50;;;7.33;100.00
13732;BME280;6937;56.096;12.664;2023-01-08T05:13:25;98583.94;;;7.06;100.00
13732;BME280;6937;56.096;12.664;2023-01-08T05:15:50;98619.81;;;7.29;100.00
13732;BME280;6937;56.096;12.664;2023-01-08T05:18:15;98627.78;;;7.29;100.00
13732;BME280;6937;56.096;12.664;2023-01-08T05:20:41;98567.72;;;7.00;100.00
13732;BME280;6937;56.096;12.664;2023-01-08T05:23:06;98630.03;;;7.34;100.00
13732;BME280;6937;56.096;12.664;2023-01-08T05:25:32;98602.78;;;7.22;100.00
13732;BME280;6937;56.096;12.664;2023-01-08T05:27:57;98613.13;;;7.25;100.00
13732;BME280;6937;56.096;12.664;2023-01-08T05:30:22;98583.25;;;7.04;100.00
13732;BME280;6937;56.096;12.664;2023-01-08T05:32:48;98633.78;;;7.32;100.00
13732;BME280;6937;56.096;12.664;2023-01-08T05:35:13;98634.50;;;7.34;100.00
13732;BME280;6937;56.096;12.664;2023-01-08T05:37:38;98650.44;;;7.34;100.00
13732;BME280;6937;56.096;12.664;2023-01-08T05:40:04;98665.53;;;7.33;100.00
13732;BME280;6937;56.096;12.664;2023-01-08T05:42:32;98652.66;;;7.28;100.00
13732;BME280;6937;56.096;12.664;2023-01-08T05:44:58;98617.75;;;7.04;100.00
13732;BME280;6937;56.096;12.664;2023-01-08T05:47:23;98624.72;;;7.05;100.00
13732;BME280;6937;56.096;12.664;2023-01-08T05:49:49;98665.09;;;7.28;100.00
13732;BME280;6937;56.096;12.664;2023-01-08T05:52:14;98654.50;;;7.18;100.00
13732;BME280;6937;56.096;12.664;2023-01-08T05:54:39;98634.38;;;7.06;100.00
13732;BME280;6937;56.096;12.664;2023-01-08T05:57:05;98661.78;;;7.26;100.00
13732;BME280;6937;56.096;12.664;2023-01-08T05:59:30;98629.66;;;7.00;100.00
13732;BME280;6937;56.096;12.664;2023-01-08T06:01:55;98631.31;;;7.01;100.00
13732;BME280;6937;56.096;12.664;2023-01-08T06:04:21;98620.97;;;6.98;100.00
13732;BME280;6937;56.096;12.664;2023-01-08T06:06:46;98659.41;;;7.13;100.00
13732;BME280;6937;56.096;12.664;2023-01-08T06:09:11;98667.34;;;7.13;100.00
13732;BME280;6937;56.096;12.664;2023-01-08T06:11:37;98670.56;;;7.17;100.00
13732;BME280;6937;56.096;12.664;2023-01-08T06:14:02;98675.75;;;7.18;100.00
13732;BME280;6937;56.096;12.664;2023-01-08T06:16:27;98652.69;;;7.09;100.00
13732;BME280;6937;56.096;12.664;2023-01-08T06:18:53;98635.38;;;6.96;100.00
13732;BME280;6937;56.096;12.664;2023-01-08T06:21:18;98660.94;;;7.06;100.00
13732;BME280;6937;56.096;12.664;2023-01-08T06:23:43;98674.09;;;7.08;100.00
13732;BME280;6937;56.096;12.664;2023-01-08T06:26:09;98674.66;;;7.11;100.00
13732;BME280;6937;56.096;12.664;2023-01-08T06:28:34;98637.59;;;6.91;100.00
13732;BME280;6937;56.096;12.664;2023-01-08T06:31:00;98665.00;;;7.10;100.00
13732;BME280;6937;56.096;12.664;2023-01-08T06:33:26;98667.78;;;7.09;100.00
13732;BME280;6937;56.096;12.664;2023-01-08T06:35:51;98617.06;;;6.83;100.00
13732;BME280;6937;56.096;12.664;2023-01-08T06:38:17;98639.16;;;6.93;100.00
13732;BME280;6937;56.096;12.664;2023-01-08T06:40:44;98651.03;;;7.08;100.00
13732;BME280;6937;56.096;12.664;2023-01-08T06:43:09;98659.25;;;7.05;100.00
13732;BME280;6937;56.096;12.664;2023-01-08T06:45:34;98666.97;;;7.08;100.00
13732;BME280;6937;56.096;12.664;2023-01-08T06:48:04;98626.44;;;6.77;100.00
13732;BME280;6937;56.096;12.664;2023-01-08T06:50:32;98659.69;;;7.01;100.00
13732;BME280;6937;56.096;12.664;2023-01-08T06:52:57;98663.31;;;7.00;100.00
13732;BME280;6937;56.096;12.664;2023-01-08T06:55:24;98664.28;;;6.99;100.00
13732;BME280;6937;56.096;12.664;2023-01-08T06:57:56;98659.94;;;6.98;100.00
13732;BME280;6937;56.096;12.664;2023-01-08T07:00:23;98662.88;;;6.95;100.00
13732;BME280;6937;56.096;12.664;2023-01-08T07:02:50;98671.97;;;6.92;100.00
13732;BME280;6937;56.096;12.664;2023-01-08T07:05:16;98634.66;;;6.65;100.00
13732;BME280;6937;56.096;12.664;2023-01-08T07:07:42;98688.44;;;6.86;100.00
13732;BME280;6937;56.096;12.664;2023-01-08T07:10:07;98690.84;;;6.89;100.00
13732;BME280;6937;56.096;12.664;2023-01-08T07:12:33;98675.16;;;6.86;100.00
13732;BME280;6937;56.096;12.664;2023-01-08T07:14:58;98672.94;;;6.91;100.00
13732;BME280;6937;56.096;12.664;2023-01-08T07:17:23;98653.09;;;6.76;100.00
13732;BME280;6937;56.096;12.664;2023-01-08T07:19:49;98685.25;;;6.92;100.00
13732;BME280;6937;56.096;12.664;2023-01-08T07:22:14;98658.56;;;6.84;100.00
13732;BME280;6937;56.096;12.664;2023-01-08T07:24:39;98657.59;;;6.85;100.00
13732;BME280;6937;56.096;12.664;2023-01-08T07:27:05;98639.00;;;6.66;100.00
13732;BME280;6937;56.096;12.664;2023-01-08T07:29:30;98669.44;;;6.91;100.00
13732;BME280;6937;56.096;12.664;2023-01-08T07:31:55;98626.41;;;6.68;100.00
13732;BME280;6937;56.096;12.664;2023-01-08T07:34:21;98663.47;;;6.89;100.00
13732;BME280;6937;56.096;12.664;2023-01-08T07:36:46;98654.78;;;6.87;100.00
13732;BME280;6937;56.096;12.664;2023-01-08T07:39:11;98622.91;;;6.67;100.00
13732;BME280;6937;56.096;12.664;2023-01-08T07:41:37;98616.22;;;6.63;100.00
13732;BME280;6937;56.096;12.664;2023-01-08T07:44:02;98657.03;;;6.91;100.00
13732;BME280;6937;56.096;12.664;2023-01-08T07:46:27;98653.69;;;6.89;100.00
13732;BME280;6937;56.096;12.664;2023-01-08T07:48:54;98620.00;;;6.70;100.00
13732;BME280;6937;56.096;12.664;2023-01-08T07:51:20;98666.25;;;6.87;100.00
13732;BME280;6937;56.096;12.664;2023-01-08T07:53:45;98651.00;;;6.79;100.00
13732;BME280;6937;56.096;12.664;2023-01-08T07:56:11;98589.94;;;6.41;100.00
13732;BME280;6937;56.096;12.664;2023-01-08T07:58:36;98662.63;;;6.88;100.00
13732;BME280;6937;56.096;12.664;2023-01-08T08:01:03;98659.53;;;6.83;100.00
13732;BME280;6937;56.096;12.664;2023-01-08T08:03:30;98671.56;;;6.87;100.00
13732;BME280;6937;56.096;12.664;2023-01-08T08:05:58;98619.69;;;6.64;100.00
13732;BME280;6937;56.096;12.664;2023-01-08T08:08:24;98671.25;;;6.90;100.00
13732;BME280;6937;56.096;12.664;2023-01-08T08:10:49;98651.28;;;6.86;100.00
13732;BME280;6937;56.096;12.664;2023-01-08T08:13:14;98674.91;;;6.89;100.00
13732;BME280;6937;56.096;12.664;2023-01-08T08:15:40;98669.31;;;6.92;100.00
13732;BME280;6937;56.096;12.664;2023-01-08T08:18:05;98671.00;;;6.93;100.00
13732;BME280;6937;56.096;12.664;2023-01-08T08:20:31;98664.69;;;6.94;100.00
13732;BME280;6937;56.096;12.664;2023-01-08T08:23:01;98593.16;;;6.64;100.00
13732;BME280;6937;56.096;12.664;2023-01-08T08:25:27;98662.47;;;6.99;100.00
13732;BME280;6937;56.096;12.664;2023-01-08T08:27:55;98649.63;;;6.95;100.00
13732;BME280;6937;56.096;12.664;2023-01-08T08:30:21;98649.50;;;6.96;100.00
13732;BME280;6937;56.096;12.664;2023-01-08T08:32:47;98629.06;;;6.87;100.00
13732;BME280;6937;56.096;12.664;2023-01-08T08:35:12;98665.53;;;6.95;100.00
13732;BME280;6937;56.096;12.664;2023-01-08T08:37:37;98648.38;;;6.89;100.00
13732;BME280;6937;56.096;12.664;2023-01-08T08:40:04;98659.81;;;6.99;100.00
13732;BME280;6937;56.096;12.664;2023-01-08T08:42:29;98658.00;;;7.00;100.00
13732;BME280;6937;56.096;12.664;2023-01-08T08:44:54;98622.78;;;6.69;100.00
13732;BME280;6937;56.096;12.664;2023-01-08T08:47:20;98653.84;;;6.97;100.00
13732;BME280;6937;56.096;12.664;2023-01-08T08:49:45;98607.56;;;6.71;100.00
13732;BME280;6937;56.096;12.664;2023-01-08T08:52:10;98658.56;;;7.03;100.00
13732;BME280;6937;56.096;12.664;2023-01-08T08:54:36;98616.91;;;6.75;100.00
13732;BME280;6937;56.096;12.664;2023-01-08T08:57:05;98619.72;;;6.83;100.00
13732;BME280;6937;56.096;12.664;2023-01-08T08:59:31;98629.50;;;6.92;100.00
13732;BME280;6937;56.096;12.664;2023-01-08T09:01:56;98644.84;;;6.98;100.00
13732;BME280;6937;56.096;12.664;2023-01-08T09:04:21;98650.72;;;7.02;100.00
13732;BME280;6937;56.096;12.664;2023-01-08T09:06:47;98638.56;;;6.99;100.00
13732;BME280;6937;56.096;12.664;2023-01-08T09:09:12;98641.66;;;7.04;100.00
13732;BME280;6937;56.096;12.664;2023-01-08T09:11:39;98614.28;;;6.85;100.00
13732;BME280;6937;56.096;12.664;2023-01-08T09:14:05;98595.97;;;6.72;100.00
13732;BME280;6937;56.096;12.664;2023-01-08T09:16:30;98644.31;;;7.04;100.00
13732;BME280;6937;56.096;12.664;2023-01-08T09:18:57;98644.03;;;7.07;100.00
13732;BME280;6937;56.096;12.664;2023-01-08T09:21:23;98602.41;;;6.89;100.00
13732;BME280;6937;56.096;12.664;2023-01-08T09:23:48;98628.81;;;7.00;100.00
13732;BME280;6937;56.096;12.664;2023-01-08T09:26:14;98626.00;;;7.11;100.00
13732;BME280;6937;56.096;12.664;2023-01-08T09:28:40;98603.66;;;7.04;100.00
13732;BME280;6937;56.096;12.664;2023-01-08T09:31:05;98624.88;;;7.04;100.00
13732;BME280;6937;56.096;12.664;2023-01-08T09:33:31;98619.69;;;7.02;100.00
13732;BME280;6937;56.096;12.664;2023-01-08T09:35:56;98618.75;;;7.03;100.00
13732;BME280;6937;56.096;12.664;2023-01-08T09:38:22;98631.31;;;7.11;100.00
13732;BME280;6937;56.096;12.664;2023-01-08T09:41:02;98600.41;;;7.10;100.00
13732;BME280;6937;56.096;12.664;2023-01-08T09:43:31;98605.03;;;7.08;100.00
13732;BME280;6937;56.096;12.664;2023-01-08T09:45:59;98601.53;;;7.07;100.00
13732;BME280;6937;56.096;12.664;2023-01-08T09:48:29;98617.19;;;7.10;100.00
13732;BME280;6937;56.096;12.664;2023-01-08T09:50:56;98607.69;;;7.08;100.00
13732;BME280;6937;56.096;12.664;2023-01-08T09:53:22;98567.75;;;6.80;100.00
13732;BME280;6937;56.096;12.664;2023-01-08T09:55:53;98608.78;;;7.05;100.00
13732;BME280;6937;56.096;12.664;2023-01-08T09:58:32;98571.09;;;6.82;100.00
13732;BME280;6937;56.096;12.664;2023-01-08T10:01:00;98615.25;;;7.03;100.00
13732;BME280;6937;56.096;12.664;2023-01-08T10:03:30;98601.84;;;7.04;100.00
13732;BME280;6937;56.096;12.664;2023-01-08T10:06:13;98593.88;;;7.04;100.00
13732;BME280;6937;56.096;12.664;2023-01-08T10:08:40;98593.31;;;7.01;100.00
13732;BME280;6937;56.096;12.664;2023-01-08T10:11:07;98588.56;;;7.04;100.00
13732;BME280;6937;56.096;12.664;2023-01-08T10:13:36;98553.34;;;6.83;100.00
13732;BME280;6937;56.096;12.664;2023-01-08T10:16:07;98586.03;;;7.03;100.00
13732;BME280;6937;56.096;12.664;2023-01-08T10:18:34;98575.81;;;6.98;100.00
13732;BME280;6937;56.096;12.664;2023-01-08T10:21:00;98574.97;;;6.98;100.00
13732;BME280;6937;56.096;12.664;2023-01-08T10:23:26;98586.16;;;7.01;100.00
13732;BME280;6937;56.096;12.664;2023-01-08T10:26:00;98577.63;;;6.98;100.00
13732;BME280;6937;56.096;12.664;2023-01-08T10:28:29;98547.09;;;6.74;100.00
13732;BME280;6937;56.096;12.664;2023-01-08T10:31:03;98571.91;;;7.02;100.00
13732;BME280;6937;56.096;12.664;2023-01-08T10:33:35;98579.59;;;7.05;100.00
13732;BME280;6937;56.096;12.664;2023-01-08T10:36:06;98586.16;;;7.01;100.00
13732;BME280;6937;56.096;12.664;2023-01-08T10:38:34;98585.72;;;7.06;100.00
13732;BME280;6937;56.096;12.664;2023-01-08T10:41:02;98577.94;;;7.04;100.00
13732;BME280;6937;56.096;12.664;2023-01-08T10:43:50;98527.94;;;6.80;100.00
13732;BME280;6937;56.096;12.664;2023-01-08T10:46:23;98577.78;;;7.06;100.00
13732;BME280;6937;56.096;12.664;2023-01-08T10:48:58;98575.97;;;7.06;100.00
13732;BME280;6937;56.096;12.664;2023-01-08T10:51:31;98574.16;;;7.07;100.00
13732;BME280;6937;56.096;12.664;2023-01-08T10:54:00;98551.53;;;6.93;100.00
13732;BME280;6937;56.096;12.664;2023-01-08T10:56:28;98578.78;;;7.05;100.00
13732;BME280;6937;56.096;12.664;2023-01-08T10:58:55;98564.22;;;6.99;100.00
13732;BME280;6937;56.096;12.664;2023-01-08T11:01:28;98565.34;;;7.06;100.00
13732;BME280;6937;56.096;12.664;2023-01-08T11:03:57;98566.19;;;7.07;100.00
13732;BME280;6937;56.096;12.664;2023-01-08T11:06:31;98562.56;;;7.08;100.00
13732;BME280;6937;56.096;12.664;2023-01-08T11:11:44;98558.63;;;7.02;100.00
13732;BME280;6937;56.096;12.664;2023-01-08T11:14:33;98554.97;;;7.13;100.00
13732;BME280;6937;56.096;12.664;2023-01-08T11:17:00;98545.78;;;7.07;100.00
13732;BME280;6937;56.096;12.664;2023-01-08T11:19:31;98550.06;;;7.18;100.00
13732;BME280;6937;56.096;12.664;2023-01-08T11:21:59;98557.38;;;7.16;100.00
13732;BME280;6937;56.096;12.664;2023-01-08T11:24:28;98542.09;;;7.18;100.00
13732;BME280;6937;56.096;12.664;2023-01-08T11:27:17;98535.16;;;7.07;100.00
13732;BME280;6937;56.096;12.664;2023-01-08T11:35:01;98538.91;;;7.14;100.00
13732;BME280;6937;56.096;12.664;2023-01-08T11:37:33;98547.97;;;7.21;100.00
13732;BME280;6937;56.096;12.664;2023-01-08T11:40:00;98507.09;;;6.95;100.00
13732;BME280;6937;56.096;12.664;2023-01-08T11:50:58;98504.66;;;7.11;100.00
13732;BME280;6937;56.096;12.664;2023-01-08T11:53:40;98522.78;;;7.25;100.00
13732;BME280;6937;56.096;12.664;2023-01-08T11:56:26;98541.09;;;7.28;100.00
13732;BME280;6937;56.096;12.664;2023-01-08T11:59:32;98484.16;;;7.04;100.00
13732;BME280;6937;56.096;12.664;2023-01-08T12:02:25;98521.94;;;7.25;100.00
13732;BME280;6937;56.096;12.664;2023-01-08T12:13:38;98513.38;;;7.31;100.00
13732;BME280;6937;56.096;12.664;2023-01-08T12:21:48;98503.88;;;7.38;100.00
13732;BME280;6937;56.096;12.664;2023-01-08T12:30:20;98506.84;;;7.25;100.00
13732;BME280;6937;56.096;12.664;2023-01-08T12:32:50;98509.66;;;7.24;100.00
13732;BME280;6937;56.096;12.664;2023-01-08T12:35:26;98506.72;;;7.27;100.00
13732;BME280;6937;56.096;12.664;2023-01-08T12:38:18;98470.88;;;7.04;100.00
13732;BME280;6937;56.096;12.664;2023-01-08T12:40:54;98516.50;;;7.26;100.00
13732;BME280;6937;56.096;12.664;2023-01-08T12:43:27;98505.16;;;7.24;100.00
13732;BME280;6937;56.096;12.664;2023-01-08T12:45:58;98502.22;;;7.27;100.00
13732;BME280;6937;56.096;12.664;2023-01-08T12:48:33;98497.75;;;7.28;100.00
13732;BME280;6937;56.096;12.664;2023-01-08T12:51:19;98517.44;;;7.35;100.00
13732;BME280;6937;56.096;12.664;2023-01-08T12:54:23;98509.47;;;7.35;100.00
13732;BME280;6937;56.096;12.664;2023-01-08T12:59:41;98514.94;;;7.34;100.00
13732;BME280;6937;56.096;12.664;2023-01-08T13:04:45;98497.28;;;7.42;100.00
13732;BME280;6937;56.096;12.664;2023-01-08T13:07:28;98451.66;;;7.19;100.00
13732;BME280;6937;56.096;12.664;2023-01-08T13:10:00;98496.59;;;7.40;100.00
13732;BME280;6937;56.096;12.664;2023-01-08T13:12:33;98496.69;;;7.48;100.00
13732;BME280;6937;56.096;12.664;2023-01-08T13:15:00;98494.03;;;7.48;100.00
13732;BME280;6937;56.096;12.664;2023-01-08T13:17:26;98492.22;;;7.49;100.00
13732;BME280;6937;56.096;12.664;2023-01-08T13:19:54;98483.44;;;7.39;100.00
13732;BME280;6937;56.096;12.664;2023-01-08T13:22:32;98497.72;;;7.38;100.00
13732;BME280;6937;56.096;12.664;2023-01-08T13:27:39;98503.22;;;7.26;100.00
13732;BME280;6937;56.096;12.664;2023-01-08T13:30:40;98509.22;;;7.28;100.00
13732;BME280;6937;56.096;12.664;2023-01-08T13:33:28;98510.47;;;7.24;100.00
13732;BME280;6937;56.096;12.664;2023-01-08T13:36:27;98511.50;;;7.23;100.00
13732;BME280;6937;56.096;12.664;2023-01-08T13:41:40;98499.84;;;7.34;100.00
13732;BME280;6937;56.096;12.664;2023-01-08T13:46:57;98485.00;;;7.32;100.00
13732;BME280;6937;56.096;12.664;2023-01-08T13:49:40;98492.25;;;7.39;100.00
13732;BME280;6937;56.096;12.664;2023-01-08T13:54:51;98484.75;;;7.35;100.00
13732;BME280;6937;56.096;12.664;2023-01-08T13:57:18;98499.38;;;7.39;100.00
13732;BME280;6937;56.096;12.664;2023-01-08T13:59:55;98449.03;;;7.10;100.00
13732;BME280;6937;56.096;12.664;2023-01-08T14:04:52;98487.09;;;7.38;100.00
13732;BME280;6937;56.096;12.664;2023-01-08T14:07:18;98499.94;;;7.42;100.00
13732;BME280;6937;56.096;12.664;2023-01-08T14:09:43;98502.31;;;7.45;100.00
13732;BME280;6937;56.096;12.664;2023-01-08T14:12:14;98487.09;;;7.38;100.00
13732;BME280;6937;56.096;12.664;2023-01-08T14:14:43;98454.59;;;7.16;100.00
13732;BME280;6937;56.096;12.664;2023-01-08T14:17:15;98490.44;;;7.40;100.00
13732;BME280;6937;56.096;12.664;2023-01-08T14:19:41;98512.09;;;7.45;100.00